createdAt,value
2017-07-09T00:00:07.434Z,0
2017-07-09T00:01:07.474Z,0
2017-07-09T00:02:07.521Z,0
2017-07-09T00:03:07.610Z,0
2017-07-09T00:04:07.600Z,0
2017-07-09T00:05:07.638Z,0
2017-07-09T00:06:07.678Z,0
2017-07-09T00:07:07.716Z,0
2017-07-09T00:08:07.757Z,0
2017-07-09T00:09:07.801Z,0
2017-07-09T00:10:07.835Z,0
2017-07-09T00:11:07.879Z,0
2017-07-09T00:12:07.923Z,0
2017-07-09T00:13:07.955Z,0
2017-07-09T00:14:08.001Z,0
2017-07-09T00:15:08.039Z,0
2017-07-09T00:16:08.083Z,0
2017-07-09T00:17:08.115Z,0
2017-07-09T00:18:08.165Z,0
2017-07-09T00:19:08.200Z,0
2017-07-09T00:20:08.242Z,0
2017-07-09T00:21:08.281Z,0
2017-07-09T00:22:08.318Z,0
2017-07-09T00:23:08.363Z,0
2017-07-09T00:24:08.411Z,0
2017-07-09T00:25:08.438Z,0
2017-07-09T00:26:08.478Z,0
2017-07-09T00:27:08.521Z,0
2017-07-09T00:28:08.564Z,0
2017-07-09T00:29:08.600Z,0
2017-07-09T00:30:08.647Z,0
2017-07-09T00:31:08.683Z,0
2017-07-09T00:32:08.724Z,0
2017-07-09T00:33:08.759Z,0
2017-07-09T00:34:08.808Z,0
2017-07-09T00:35:08.845Z,0
2017-07-09T00:36:08.884Z,0
2017-07-09T00:37:08.926Z,0
2017-07-09T00:38:08.964Z,0
2017-07-09T00:39:09.000Z,0
2017-07-09T00:40:09.042Z,0
2017-07-09T00:41:09.090Z,0
2017-07-09T00:42:09.130Z,0
2017-07-09T00:43:09.165Z,0
2017-07-09T00:44:09.209Z,0
2017-07-09T00:45:09.247Z,0
2017-07-09T00:46:09.291Z,0
2017-07-09T00:47:09.322Z,0
2017-07-09T00:48:09.369Z,0
2017-07-09T00:49:09.403Z,0
2017-07-09T00:50:09.441Z,0
2017-07-09T00:51:09.497Z,0
2017-07-09T00:52:09.529Z,0
2017-07-09T00:53:09.571Z,0
2017-07-09T00:54:09.932Z,0
2017-07-09T00:55:09.651Z,0
2017-07-09T00:56:10.012Z,0
2017-07-09T00:57:09.732Z,0
2017-07-09T00:58:10.407Z,0
2017-07-09T00:59:09.811Z,0
2017-07-09T01:00:09.846Z,0
2017-07-09T01:01:09.890Z,0
2017-07-09T01:02:09.924Z,0
2017-07-09T01:03:09.972Z,0
2017-07-09T01:04:10.008Z,0
2017-07-09T01:05:10.051Z,0
2017-07-09T01:06:10.090Z,0
2017-07-09T01:07:10.127Z,0
2017-07-09T01:08:10.169Z,0
2017-07-09T01:09:10.210Z,0
2017-07-09T01:10:10.250Z,0
2017-07-09T01:11:10.287Z,0
2017-07-09T01:12:10.330Z,0
2017-07-09T01:13:10.371Z,0
2017-07-09T01:14:10.405Z,0
2017-07-09T01:15:10.451Z,0
2017-07-09T01:16:10.487Z,0
2017-07-09T01:17:10.526Z,0
2017-07-09T01:18:10.584Z,0
2017-07-09T01:19:10.613Z,0
2017-07-09T01:20:10.647Z,0
2017-07-09T01:21:10.695Z,0
2017-07-09T01:22:10.728Z,0
2017-07-09T01:23:10.767Z,0
2017-07-09T01:24:10.812Z,0
2017-07-09T01:25:10.857Z,0
2017-07-09T01:26:10.894Z,0
2017-07-09T01:27:10.935Z,0
2017-07-09T01:28:10.969Z,0
2017-07-09T01:29:11.015Z,0
2017-07-09T01:30:11.053Z,0
2017-07-09T01:31:11.095Z,0
2017-07-09T01:32:11.134Z,0
2017-07-09T01:33:11.493Z,0
2017-07-09T01:34:11.209Z,0
2017-07-09T01:35:11.256Z,0
2017-07-09T01:36:11.290Z,0
2017-07-09T01:37:11.661Z,0
2017-07-09T01:38:11.377Z,0
2017-07-09T01:39:11.414Z,0
2017-07-09T01:40:11.458Z,0
2017-07-09T01:41:11.498Z,0
2017-07-09T01:42:11.531Z,0
2017-07-09T01:43:11.578Z,0
2017-07-09T01:44:11.617Z,0
2017-07-09T01:45:11.650Z,0
2017-07-09T01:46:11.694Z,0
2017-07-09T01:47:11.738Z,0
2017-07-09T01:48:11.774Z,0
2017-07-09T01:49:11.813Z,0
2017-07-09T01:50:11.859Z,0
2017-07-09T01:51:11.906Z,0
2017-07-09T01:52:11.921Z,0
2017-07-09T01:53:11.940Z,0
2017-07-09T01:54:11.967Z,0
2017-07-09T01:55:12.010Z,0
2017-07-09T01:56:12.054Z,0
2017-07-09T01:57:12.087Z,0
2017-07-09T01:58:12.455Z,0
2017-07-09T01:59:12.168Z,0
2017-07-09T02:00:12.527Z,0
2017-07-09T02:01:12.253Z,0
2017-07-09T02:02:12.287Z,0
2017-07-09T02:03:12.334Z,0
2017-07-09T02:04:12.373Z,0
2017-07-09T02:05:12.412Z,0
2017-07-09T02:06:12.453Z,0
2017-07-09T02:07:12.493Z,0
2017-07-09T02:08:12.532Z,0
2017-07-09T02:09:12.570Z,0
2017-07-09T02:10:12.613Z,0
2017-07-09T02:11:12.654Z,0
2017-07-09T02:12:12.691Z,0
2017-07-09T02:13:12.731Z,0
2017-07-09T02:14:12.767Z,0
2017-07-09T02:15:12.814Z,0
2017-07-09T02:16:12.850Z,0
2017-07-09T02:17:12.891Z,0
2017-07-09T02:18:13.250Z,0
2017-07-09T02:19:12.976Z,0
2017-07-09T02:20:13.017Z,0
2017-07-09T02:21:13.051Z,0
2017-07-09T02:22:13.095Z,4
2017-07-09T02:23:13.130Z,4
2017-07-09T02:24:13.173Z,0
2017-07-09T02:25:13.216Z,0
2017-07-09T02:26:13.255Z,4
2017-07-09T02:27:13.292Z,4
2017-07-09T02:28:13.337Z,4
2017-07-09T02:29:13.373Z,4
2017-07-09T02:30:13.415Z,4
2017-07-09T02:31:13.457Z,4
2017-07-09T02:32:13.490Z,8
2017-07-09T02:33:13.531Z,4
2017-07-09T02:34:13.578Z,8
2017-07-09T02:35:13.612Z,8
2017-07-09T02:36:13.661Z,12
2017-07-09T02:37:14.071Z,12
2017-07-09T02:38:13.735Z,12
2017-07-09T02:39:13.776Z,16
2017-07-09T02:40:13.818Z,12
2017-07-09T02:41:13.856Z,16
2017-07-09T02:42:13.901Z,24
2017-07-09T02:43:13.932Z,24
2017-07-09T02:44:13.974Z,28
2017-07-09T02:45:14.016Z,32
2017-07-09T02:46:14.369Z,36
2017-07-09T02:47:14.096Z,40
2017-07-09T02:48:14.136Z,44
2017-07-09T02:49:14.173Z,52
2017-07-09T02:50:14.537Z,56
2017-07-09T02:51:14.252Z,60
2017-07-09T02:52:14.295Z,64
2017-07-09T02:53:14.337Z,72
2017-07-09T02:54:14.380Z,76
2017-07-09T02:55:14.422Z,80
2017-07-09T02:56:14.460Z,88
2017-07-09T02:57:14.810Z,96
2017-07-09T02:58:14.535Z,104
2017-07-09T02:59:14.574Z,116
2017-07-09T03:00:14.616Z,128
2017-07-09T03:01:14.657Z,136
2017-07-09T03:02:14.699Z,148
2017-07-09T03:03:14.732Z,156
2017-07-09T03:04:14.779Z,160
2017-07-09T03:05:14.815Z,168
2017-07-09T03:06:14.851Z,180
2017-07-09T03:07:14.892Z,192
2017-07-09T03:08:14.946Z,208
2017-07-09T03:09:14.976Z,228
2017-07-09T03:10:15.010Z,252
2017-07-09T03:11:15.056Z,272
2017-07-09T03:12:15.101Z,292
2017-07-09T03:13:15.132Z,320
2017-07-09T03:14:15.177Z,344
2017-07-09T03:15:15.215Z,372
2017-07-09T03:16:15.249Z,424
2017-07-09T03:17:15.296Z,512
2017-07-09T03:18:15.333Z,576
2017-07-09T03:19:15.377Z,616
2017-07-09T03:20:15.467Z,636
2017-07-09T03:21:15.454Z,652
2017-07-09T03:22:15.497Z,656
2017-07-09T03:23:15.531Z,652
2017-07-09T03:24:15.572Z,656
2017-07-09T03:25:15.612Z,672
2017-07-09T03:26:15.654Z,696
2017-07-09T03:27:15.689Z,732
2017-07-09T03:28:15.740Z,780
2017-07-09T03:29:15.776Z,812
2017-07-09T03:30:15.810Z,804
2017-07-09T03:31:15.858Z,792
2017-07-09T03:32:15.890Z,796
2017-07-09T03:33:15.934Z,816
2017-07-09T03:34:15.971Z,868
2017-07-09T03:35:16.013Z,956
2017-07-09T03:36:16.053Z,1044
2017-07-09T03:37:16.088Z,1168
2017-07-09T03:38:16.136Z,1348
2017-07-09T03:39:16.173Z,1508
2017-07-09T03:40:16.211Z,1628
2017-07-09T03:41:16.254Z,1740
2017-07-09T03:42:16.288Z,1884
2017-07-09T03:43:16.334Z,1984
2017-07-09T03:44:16.370Z,2020
2017-07-09T03:45:16.415Z,2008
2017-07-09T03:46:16.458Z,1848
2017-07-09T03:47:16.494Z,1660
2017-07-09T03:48:16.876Z,1572
2017-07-09T03:49:16.568Z,1512
2017-07-09T03:50:16.613Z,1544
2017-07-09T03:51:16.654Z,1564
2017-07-09T03:52:16.693Z,1636
2017-07-09T03:53:16.733Z,1708
2017-07-09T03:54:17.087Z,1828
2017-07-09T03:55:16.812Z,1832
2017-07-09T03:56:16.858Z,1788
2017-07-09T03:57:16.898Z,1744
2017-07-09T03:58:16.946Z,1644
2017-07-09T03:59:16.980Z,1472
2017-07-09T04:00:17.020Z,1312
2017-07-09T04:01:17.059Z,1224
2017-07-09T04:02:17.099Z,1200
2017-07-09T04:03:17.143Z,1224
2017-07-09T04:04:17.183Z,1304
2017-07-09T04:05:17.222Z,1424
2017-07-09T04:06:17.259Z,1512
2017-07-09T04:07:17.300Z,1536
2017-07-09T04:08:17.345Z,1492
2017-07-09T04:09:17.385Z,1476
2017-07-09T04:10:17.424Z,1520
2017-07-09T04:11:17.463Z,1636
2017-07-09T04:12:17.501Z,1824
2017-07-09T04:13:17.539Z,2060
2017-07-09T04:14:17.585Z,2276
2017-07-09T04:15:17.626Z,2456
2017-07-09T04:16:17.661Z,2512
2017-07-09T04:17:17.711Z,2432
2017-07-09T04:18:17.745Z,2304
2017-07-09T04:19:17.789Z,2172
2017-07-09T04:20:17.829Z,2036
2017-07-09T04:21:17.866Z,1868
2017-07-09T04:22:17.903Z,1676
2017-07-09T04:23:17.949Z,1536
2017-07-09T04:24:17.990Z,1432
2017-07-09T04:25:18.033Z,1368
2017-07-09T04:26:18.397Z,1388
2017-07-09T04:27:18.107Z,1448
2017-07-09T04:28:18.152Z,1504
2017-07-09T04:29:18.192Z,1568
2017-07-09T04:30:18.234Z,1592
2017-07-09T04:31:18.591Z,1588
2017-07-09T04:32:18.317Z,1560
2017-07-09T04:33:18.359Z,1488
2017-07-09T04:34:18.395Z,1408
2017-07-09T04:35:18.432Z,1320
2017-07-09T04:36:18.479Z,1276
2017-07-09T04:37:18.510Z,1240
2017-07-09T04:38:18.556Z,1216
2017-07-09T04:39:18.599Z,1220
2017-07-09T04:40:18.636Z,1252
2017-07-09T04:41:18.672Z,1264
2017-07-09T04:42:18.718Z,1232
2017-07-09T04:43:19.072Z,1192
2017-07-09T04:44:18.800Z,1172
2017-07-09T04:45:18.841Z,1148
2017-07-09T04:46:18.876Z,1104
2017-07-09T04:47:18.919Z,1052
2017-07-09T04:48:18.960Z,1048
2017-07-09T04:49:19.006Z,1072
2017-07-09T04:50:19.044Z,1160
2017-07-09T04:51:19.079Z,1284
2017-07-09T04:52:19.122Z,1444
2017-07-09T04:53:19.161Z,1628
2017-07-09T04:54:19.201Z,1792
2017-07-09T04:55:19.241Z,1936
2017-07-09T04:56:19.283Z,2052
2017-07-09T04:57:19.316Z,2112
2017-07-09T04:58:19.358Z,2092
2017-07-09T04:59:19.404Z,2052
2017-07-09T05:00:19.760Z,2040
2017-07-09T05:01:19.480Z,2040
2017-07-09T05:02:19.524Z,2096
2017-07-09T05:03:19.560Z,2208
2017-07-09T05:04:19.601Z,2348
2017-07-09T05:05:19.645Z,2336
2017-07-09T05:06:19.685Z,2332
2017-07-09T05:07:19.725Z,2252
2017-07-09T05:08:19.769Z,2168
2017-07-09T05:09:19.804Z,2084
2017-07-09T05:10:19.845Z,2024
2017-07-09T05:11:19.887Z,2004
2017-07-09T05:12:19.930Z,1940
2017-07-09T05:13:19.964Z,1848
2017-07-09T05:14:20.008Z,1828
2017-07-09T05:15:20.051Z,1816
2017-07-09T05:16:20.090Z,1836
2017-07-09T05:17:20.123Z,1960
2017-07-09T05:18:20.171Z,2136
2017-07-09T05:19:20.207Z,2292
2017-07-09T05:20:20.248Z,2452
2017-07-09T05:21:20.292Z,2548
2017-07-09T05:22:20.333Z,2500
2017-07-09T05:23:20.370Z,2508
2017-07-09T05:24:20.412Z,2548
2017-07-09T05:25:20.450Z,2548
2017-07-09T05:26:20.493Z,2604
2017-07-09T05:27:20.546Z,2716
2017-07-09T05:28:20.573Z,2928
2017-07-09T05:29:20.616Z,3108
2017-07-09T05:30:20.654Z,3044
2017-07-09T05:31:20.694Z,2696
2017-07-09T05:32:20.736Z,2264
2017-07-09T05:33:20.774Z,2052
2017-07-09T05:34:20.811Z,2016
2017-07-09T05:35:20.856Z,2076
2017-07-09T05:36:20.893Z,2100
2017-07-09T05:37:20.938Z,2112
2017-07-09T05:38:20.974Z,2176
2017-07-09T05:39:21.391Z,2288
2017-07-09T05:40:21.375Z,2312
2017-07-09T05:41:21.102Z,2300
2017-07-09T05:42:21.139Z,2320
2017-07-09T05:43:21.179Z,2376
2017-07-09T05:44:21.215Z,2216
2017-07-09T05:45:21.257Z,1924
2017-07-09T05:46:21.316Z,1704
2017-07-09T05:47:21.343Z,1632
2017-07-09T05:48:21.375Z,1720
2017-07-09T05:49:21.424Z,1824
2017-07-09T05:50:21.457Z,2076
2017-07-09T05:51:21.503Z,2580
2017-07-09T05:52:21.540Z,3120
2017-07-09T05:53:21.588Z,3764
2017-07-09T05:54:21.627Z,4360
2017-07-09T05:55:21.662Z,4872
2017-07-09T05:56:21.707Z,5444
2017-07-09T05:57:21.754Z,5708
2017-07-09T05:58:21.782Z,5836
2017-07-09T05:59:21.826Z,6244
2017-07-09T06:00:21.865Z,6892
2017-07-09T06:01:21.908Z,8016
2017-07-09T06:02:21.949Z,9356
2017-07-09T06:03:21.993Z,10892
2017-07-09T06:04:22.034Z,12496
2017-07-09T06:05:22.072Z,14304
2017-07-09T06:06:22.109Z,16140
2017-07-09T06:07:22.474Z,20768
2017-07-09T06:08:22.193Z,22272
2017-07-09T06:09:22.238Z,12816
2017-07-09T06:10:22.280Z,9788
2017-07-09T06:11:22.319Z,6836
2017-07-09T06:12:22.366Z,4636
2017-07-09T06:13:22.410Z,4232
2017-07-09T06:14:22.448Z,4504
2017-07-09T06:15:22.485Z,5096
2017-07-09T06:16:22.525Z,5572
2017-07-09T06:17:22.895Z,5728
2017-07-09T06:18:22.614Z,5700
2017-07-09T06:19:22.660Z,5764
2017-07-09T06:20:22.702Z,5872
2017-07-09T06:21:22.740Z,6056
2017-07-09T06:22:22.782Z,6216
2017-07-09T06:23:22.829Z,6704
2017-07-09T06:24:22.865Z,7736
2017-07-09T06:25:22.904Z,8384
2017-07-09T06:26:22.944Z,8472
2017-07-09T06:27:22.994Z,8280
2017-07-09T06:28:23.034Z,7836
2017-07-09T06:29:23.071Z,7340
2017-07-09T06:30:23.117Z,7116
2017-07-09T06:31:23.471Z,6996
2017-07-09T06:32:23.201Z,6660
2017-07-09T06:33:23.243Z,6240
2017-07-09T06:34:23.278Z,5936
2017-07-09T06:35:23.330Z,5684
2017-07-09T06:36:23.368Z,5116
2017-07-09T06:37:23.447Z,4696
2017-07-09T06:38:23.444Z,4508
2017-07-09T06:39:23.484Z,4636
2017-07-09T06:40:23.531Z,4808
2017-07-09T06:41:23.567Z,5092
2017-07-09T06:42:23.611Z,5596
2017-07-09T06:43:23.652Z,6332
2017-07-09T06:44:23.698Z,7244
2017-07-09T06:45:23.733Z,8344
2017-07-09T06:46:23.786Z,9544
2017-07-09T06:47:24.133Z,10688
2017-07-09T06:48:23.862Z,11724
2017-07-09T06:49:23.897Z,13452
2017-07-09T06:50:23.941Z,15456
2017-07-09T06:51:23.995Z,17728
2017-07-09T06:52:24.022Z,21120
2017-07-09T06:53:24.065Z,57056
2017-07-09T06:54:24.111Z,30848
2017-07-09T06:55:24.154Z,47968
2017-07-09T06:56:24.193Z,13508
2017-07-09T06:57:24.239Z,10556
2017-07-09T06:58:24.279Z,9356
2017-07-09T06:59:24.331Z,9048
2017-07-09T07:00:24.363Z,9200
2017-07-09T07:01:24.413Z,9404
2017-07-09T07:02:24.450Z,9356
2017-07-09T07:03:24.503Z,9008
2017-07-09T07:04:24.536Z,8372
2017-07-09T07:05:24.580Z,7964
2017-07-09T07:06:24.630Z,7736
2017-07-09T07:07:24.674Z,7980
2017-07-09T07:08:24.713Z,8284
2017-07-09T07:09:24.803Z,8256
2017-07-09T07:10:24.795Z,7996
2017-07-09T07:11:24.840Z,7968
2017-07-09T07:12:24.887Z,8064
2017-07-09T07:13:24.940Z,8448
2017-07-09T07:14:24.968Z,8868
2017-07-09T07:15:25.012Z,9192
2017-07-09T07:16:25.053Z,9528
2017-07-09T07:17:25.093Z,9764
2017-07-09T07:18:25.143Z,10004
2017-07-09T07:19:25.179Z,10096
2017-07-09T07:20:25.218Z,10140
2017-07-09T07:21:25.273Z,10284
2017-07-09T07:22:25.308Z,10560
2017-07-09T07:23:25.348Z,11280
2017-07-09T07:24:25.390Z,12644
2017-07-09T07:25:25.432Z,14724
2017-07-09T07:26:25.479Z,18560
2017-07-09T07:27:25.519Z,64608
2017-07-09T07:28:25.562Z,66080
2017-07-09T07:29:25.607Z,32864
2017-07-09T07:30:25.646Z,45248
2017-07-09T07:31:25.694Z,48928
2017-07-09T07:32:25.737Z,68736
2017-07-09T07:33:25.778Z,68992
2017-07-09T07:34:26.144Z,69248
2017-07-09T07:35:25.874Z,67648
2017-07-09T07:36:25.921Z,47168
2017-07-09T07:37:25.978Z,70720
2017-07-09T07:38:26.014Z,51552
2017-07-09T07:39:26.064Z,71808
2017-07-09T07:40:26.108Z,66624
2017-07-09T07:41:26.160Z,31968
2017-07-09T07:42:26.210Z,74528
2017-07-09T07:43:26.256Z,65280
2017-07-09T07:44:26.310Z,68800
2017-07-09T07:45:26.363Z,23168
2017-07-09T07:46:26.405Z,19808
2017-07-09T07:47:26.463Z,20512
2017-07-09T07:48:26.510Z,21376
2017-07-09T07:49:26.564Z,23136
2017-07-09T07:50:26.609Z,38528
2017-07-09T07:51:26.654Z,21408
2017-07-09T07:52:26.714Z,21344
2017-07-09T07:53:26.751Z,23840
2017-07-09T07:54:26.803Z,53632
2017-07-09T07:55:26.853Z,33280
2017-07-09T07:56:26.904Z,90144
2017-07-09T07:57:26.949Z,88928
2017-07-09T07:58:26.998Z,83648
2017-07-09T07:59:27.045Z,56960
2017-07-09T08:00:27.100Z,67200
2017-07-09T08:01:27.143Z,44896
2017-07-09T08:02:27.202Z,34304
2017-07-09T08:03:27.247Z,27872
2017-07-09T08:04:27.302Z,68736
2017-07-09T08:05:27.347Z,64960
2017-07-09T08:06:27.400Z,23168
2017-07-09T08:07:27.448Z,25472
2017-07-09T08:08:27.505Z,47712
2017-07-09T08:09:27.549Z,73088
2017-07-09T08:10:27.597Z,50656
2017-07-09T08:11:27.985Z,68192
2017-07-09T08:12:27.698Z,72288
2017-07-09T08:13:27.751Z,91168
2017-07-09T08:14:27.800Z,87136
2017-07-09T08:15:27.856Z,92544
2017-07-09T08:16:27.908Z,92416
2017-07-09T08:17:27.954Z,86176
2017-07-09T08:18:28.015Z,64448
2017-07-09T08:19:28.068Z,62688
2017-07-09T08:20:28.115Z,76064
2017-07-09T08:21:28.173Z,40192
2017-07-09T08:22:28.220Z,37760
2017-07-09T08:23:28.286Z,49440
2017-07-09T08:24:28.330Z,62656
2017-07-09T08:25:28.381Z,63328
2017-07-09T08:26:28.438Z,58880
2017-07-09T08:27:28.488Z,69568
2017-07-09T08:28:28.544Z,52416
2017-07-09T08:29:28.594Z,68928
2017-07-09T08:30:28.654Z,43232
2017-07-09T08:31:28.709Z,27904
2017-07-09T08:32:28.754Z,79776
2017-07-09T08:33:28.809Z,88480
2017-07-09T08:34:28.866Z,59584
2017-07-09T08:35:28.916Z,87680
2017-07-09T08:36:28.972Z,81504
2017-07-09T08:37:29.027Z,87936
2017-07-09T08:38:29.079Z,73472
2017-07-09T08:39:29.459Z,82272
2017-07-09T08:40:29.189Z,79968
2017-07-09T08:41:29.244Z,88480
2017-07-09T08:42:29.630Z,55488
2017-07-09T08:43:29.352Z,66048
2017-07-09T08:44:29.411Z,90272
2017-07-09T08:45:29.460Z,89216
2017-07-09T08:46:29.520Z,31872
2017-07-09T08:47:29.571Z,36704
2017-07-09T08:48:29.633Z,42272
2017-07-09T08:49:29.681Z,79904
2017-07-09T08:50:29.759Z,35008
2017-07-09T08:51:29.797Z,34688
2017-07-09T08:52:29.847Z,45088
2017-07-09T08:53:29.905Z,36352
2017-07-09T08:54:29.963Z,71840
2017-07-09T08:55:30.013Z,81664
2017-07-09T08:56:30.062Z,116256
2017-07-09T08:57:30.125Z,94560
2017-07-09T08:58:30.179Z,90592
2017-07-09T08:59:30.234Z,49920
2017-07-09T09:00:30.289Z,32544
2017-07-09T09:01:30.347Z,69536
2017-07-09T09:02:30.396Z,68480
2017-07-09T09:03:30.455Z,98560
2017-07-09T09:04:30.509Z,68544
2017-07-09T09:05:30.565Z,42496
2017-07-09T09:06:30.622Z,87904
2017-07-09T09:07:30.670Z,87424
2017-07-09T09:08:30.732Z,90720
2017-07-09T09:09:30.781Z,92384
2017-07-09T09:10:30.836Z,88672
2017-07-09T09:11:31.211Z,66112
2017-07-09T09:12:30.953Z,64544
2017-07-09T09:13:31.004Z,71712
2017-07-09T09:14:31.065Z,64192
2017-07-09T09:15:31.116Z,93248
2017-07-09T09:16:31.186Z,46240
2017-07-09T09:17:31.551Z,49888
2017-07-09T09:18:31.286Z,47264
2017-07-09T09:19:31.341Z,59584
2017-07-09T09:20:31.395Z,102368
2017-07-09T09:21:31.456Z,41056
2017-07-09T09:22:31.511Z,40640
2017-07-09T09:23:31.569Z,34400
2017-07-09T09:24:31.942Z,33664
2017-07-09T09:25:31.677Z,27360
2017-07-09T09:26:31.734Z,48256
2017-07-09T09:27:31.782Z,78144
2017-07-09T09:28:31.847Z,57248
2017-07-09T09:29:31.894Z,67168
2017-07-09T09:30:31.952Z,115424
2017-07-09T09:31:32.004Z,103136
2017-07-09T09:32:32.063Z,56416
2017-07-09T09:33:32.119Z,65248
2017-07-09T09:34:32.174Z,37984
2017-07-09T09:35:32.223Z,90848
2017-07-09T09:36:32.285Z,96416
2017-07-09T09:37:32.333Z,65952
2017-07-09T09:38:32.392Z,45376
2017-07-09T09:39:32.451Z,70912
2017-07-09T09:40:32.504Z,91936
2017-07-09T09:41:32.560Z,107808
2017-07-09T09:42:32.607Z,95616
2017-07-09T09:43:32.671Z,73056
2017-07-09T09:44:32.722Z,77088
2017-07-09T09:45:32.780Z,65600
2017-07-09T09:46:32.831Z,75328
2017-07-09T09:47:32.892Z,71488
2017-07-09T09:48:32.950Z,82368
2017-07-09T09:49:32.996Z,83552
2017-07-09T09:50:33.057Z,84512
2017-07-09T09:51:33.114Z,86240
2017-07-09T09:52:33.165Z,86464
2017-07-09T09:53:33.221Z,89216
2017-07-09T09:54:33.293Z,91968
2017-07-09T09:55:33.345Z,94400
2017-07-09T09:56:33.405Z,96576
2017-07-09T09:57:33.463Z,99616
2017-07-09T09:58:33.509Z,97152
2017-07-09T09:59:33.569Z,94560
2017-07-09T10:00:33.638Z,89824
2017-07-09T10:01:33.680Z,87040
2017-07-09T10:02:33.746Z,86592
2017-07-09T10:03:33.814Z,84832
2017-07-09T10:04:33.860Z,88928
2017-07-09T10:05:34.294Z,90368
2017-07-09T10:06:33.990Z,101184
2017-07-09T10:07:34.035Z,102272
2017-07-09T10:08:34.089Z,101248
2017-07-09T10:09:34.165Z,100160
2017-07-09T10:10:34.207Z,97664
2017-07-09T10:11:34.266Z,94912
2017-07-09T10:12:34.325Z,93760
2017-07-09T10:13:34.386Z,93536
2017-07-09T10:14:34.454Z,92480
2017-07-09T10:15:34.737Z,94752
2017-07-09T10:16:34.565Z,97600
2017-07-09T10:17:34.618Z,97984
2017-07-09T10:18:34.684Z,96416
2017-07-09T10:19:34.748Z,93632
2017-07-09T10:20:34.799Z,89696
2017-07-09T10:21:34.854Z,88480
2017-07-09T10:22:34.916Z,85312
2017-07-09T10:23:34.971Z,88000
2017-07-09T10:24:35.030Z,90880
2017-07-09T10:25:35.089Z,94912
2017-07-09T10:26:35.209Z,93056
2017-07-09T10:27:35.208Z,90560
2017-07-09T10:28:35.268Z,89568
2017-07-09T10:29:35.324Z,88736
2017-07-09T10:30:35.390Z,67840
2017-07-09T10:31:35.442Z,65824
2017-07-09T10:32:35.505Z,80064
2017-07-09T10:33:35.581Z,82208
2017-07-09T10:34:35.622Z,76832
2017-07-09T10:35:35.675Z,68416
2017-07-09T10:36:35.738Z,44928
2017-07-09T10:37:35.798Z,38368
2017-07-09T10:38:35.854Z,40416
2017-07-09T10:39:36.235Z,61024
2017-07-09T10:40:35.970Z,47488
2017-07-09T10:41:36.031Z,37632
2017-07-09T10:42:36.086Z,40992
2017-07-09T10:43:36.141Z,37568
2017-07-09T10:44:36.204Z,65952
2017-07-09T10:45:36.254Z,54112
2017-07-09T10:46:36.314Z,44384
2017-07-09T10:47:36.374Z,38784
2017-07-09T10:48:36.428Z,35264
2017-07-09T10:49:36.477Z,40896
2017-07-09T10:50:36.540Z,53920
2017-07-09T10:51:36.591Z,44032
2017-07-09T10:52:36.652Z,107584
2017-07-09T10:53:36.701Z,78752
2017-07-09T10:54:36.763Z,75744
2017-07-09T10:55:36.815Z,63200
2017-07-09T10:56:36.867Z,73984
2017-07-09T10:57:36.930Z,78944
2017-07-09T10:58:36.978Z,33184
2017-07-09T10:59:37.042Z,35264
2017-07-09T11:00:37.092Z,43808
2017-07-09T11:01:37.146Z,41472
2017-07-09T11:02:37.215Z,71744
2017-07-09T11:03:37.265Z,44992
2017-07-09T11:04:37.320Z,36192
2017-07-09T11:05:37.365Z,23008
2017-07-09T11:06:37.428Z,29888
2017-07-09T11:07:37.476Z,27840
2017-07-09T11:08:37.548Z,28960
2017-07-09T11:09:37.582Z,32640
2017-07-09T11:10:37.643Z,23008
2017-07-09T11:11:37.700Z,17984
2017-07-09T11:12:37.747Z,15536
2017-07-09T11:13:37.804Z,13628
2017-07-09T11:14:37.883Z,12080
2017-07-09T11:15:37.910Z,11484
2017-07-09T11:16:37.973Z,11228
2017-07-09T11:17:38.015Z,11108
2017-07-09T11:18:38.067Z,11084
2017-07-09T11:19:38.123Z,10972
2017-07-09T11:20:38.167Z,10824
2017-07-09T11:21:38.224Z,10676
2017-07-09T11:22:38.270Z,10588
2017-07-09T11:23:38.324Z,10540
2017-07-09T11:24:38.370Z,10520
2017-07-09T11:25:38.426Z,10504
2017-07-09T11:26:38.475Z,10440
2017-07-09T11:27:38.527Z,10324
2017-07-09T11:28:38.581Z,10116
2017-07-09T11:29:38.650Z,9952
2017-07-09T11:30:38.689Z,9812
2017-07-09T11:31:38.744Z,9732
2017-07-09T11:32:38.776Z,9696
2017-07-09T11:33:38.823Z,9704
2017-07-09T11:34:38.878Z,9672
2017-07-09T11:35:38.923Z,9624
2017-07-09T11:36:38.981Z,9532
2017-07-09T11:37:39.017Z,9444
2017-07-09T11:38:39.073Z,9368
2017-07-09T11:39:39.163Z,9356
2017-07-09T11:40:39.170Z,9344
2017-07-09T11:41:39.216Z,9392
2017-07-09T11:42:39.295Z,9368
2017-07-09T11:43:39.310Z,9416
2017-07-09T11:44:39.359Z,9472
2017-07-09T11:45:39.407Z,9516
2017-07-09T11:46:39.463Z,9492
2017-07-09T11:47:39.507Z,9372
2017-07-09T11:48:39.567Z,9248
2017-07-09T11:49:39.600Z,9168
2017-07-09T11:50:39.653Z,9084
2017-07-09T11:51:39.695Z,8992
2017-07-09T11:52:39.749Z,8924
2017-07-09T11:53:39.795Z,8856
2017-07-09T11:54:39.842Z,8812
2017-07-09T11:55:39.891Z,8804
2017-07-09T11:56:39.939Z,8764
2017-07-09T11:57:39.982Z,8724
2017-07-09T11:58:40.033Z,8616
2017-07-09T11:59:40.076Z,8560
2017-07-09T12:00:40.133Z,8600
2017-07-09T12:01:40.178Z,8640
2017-07-09T12:02:40.252Z,8808
2017-07-09T12:03:40.271Z,8976
2017-07-09T12:04:40.318Z,9100
2017-07-09T12:05:40.366Z,9640
2017-07-09T12:06:40.414Z,10088
2017-07-09T12:07:40.466Z,10424
2017-07-09T12:08:40.506Z,10720
2017-07-09T12:09:40.558Z,10596
2017-07-09T12:10:40.601Z,10200
2017-07-09T12:11:40.650Z,10640
2017-07-09T12:12:40.706Z,11388
2017-07-09T12:13:40.759Z,11692
2017-07-09T12:14:40.796Z,11556
2017-07-09T12:15:40.845Z,12256
2017-07-09T12:16:40.908Z,13868
2017-07-09T12:17:40.941Z,14584
2017-07-09T12:18:40.990Z,14228
2017-07-09T12:19:41.031Z,14564
2017-07-09T12:20:41.084Z,14276
2017-07-09T12:21:41.131Z,14212
2017-07-09T12:22:41.172Z,14308
2017-07-09T12:23:41.231Z,14848
2017-07-09T12:24:41.275Z,14496
2017-07-09T12:25:41.321Z,14424
2017-07-09T12:26:41.367Z,14756
2017-07-09T12:27:41.416Z,14976
2017-07-09T12:28:41.466Z,15080
2017-07-09T12:29:41.517Z,15056
2017-07-09T12:30:41.558Z,14796
2017-07-09T12:31:41.611Z,14672
2017-07-09T12:32:41.658Z,14672
2017-07-09T12:33:41.703Z,14668
2017-07-09T12:34:41.761Z,14108
2017-07-09T12:35:41.805Z,13080
2017-07-09T12:36:41.858Z,11976
2017-07-09T12:37:41.899Z,10772
2017-07-09T12:38:41.952Z,10064
2017-07-09T12:39:42.005Z,9576
2017-07-09T12:40:42.047Z,9364
2017-07-09T12:41:42.101Z,9168
2017-07-09T12:42:42.140Z,8920
2017-07-09T12:43:42.193Z,8936
2017-07-09T12:44:42.235Z,9380
2017-07-09T12:45:42.284Z,9724
2017-07-09T12:46:42.334Z,9800
2017-07-09T12:47:42.379Z,10236
2017-07-09T12:48:42.432Z,10704
2017-07-09T12:49:42.474Z,11064
2017-07-09T12:50:42.523Z,11372
2017-07-09T12:51:42.574Z,11476
2017-07-09T12:52:42.619Z,11832
2017-07-09T12:53:42.667Z,11848
2017-07-09T12:54:42.719Z,11220
2017-07-09T12:55:42.764Z,10236
2017-07-09T12:56:42.815Z,9504
2017-07-09T12:57:42.870Z,9056
2017-07-09T12:58:42.913Z,8772
2017-07-09T12:59:42.961Z,9072
2017-07-09T13:00:43.007Z,8948
2017-07-09T13:01:43.056Z,9368
2017-07-09T13:02:43.097Z,9524
2017-07-09T13:03:43.151Z,9572
2017-07-09T13:04:43.195Z,10148
2017-07-09T13:05:43.242Z,10424
2017-07-09T13:06:43.289Z,11128
2017-07-09T13:07:43.346Z,11308
2017-07-09T13:08:43.414Z,11260
2017-07-09T13:09:43.438Z,10992
2017-07-09T13:10:43.482Z,10712
2017-07-09T13:11:43.533Z,10472
2017-07-09T13:12:43.588Z,10468
2017-07-09T13:13:43.636Z,10736
2017-07-09T13:14:43.674Z,10240
2017-07-09T13:15:43.727Z,10084
2017-07-09T13:16:43.773Z,9600
2017-07-09T13:17:43.823Z,9272
2017-07-09T13:18:43.870Z,9512
2017-07-09T13:19:43.914Z,9076
2017-07-09T13:20:44.572Z,8896
2017-07-09T13:21:44.014Z,8784
2017-07-09T13:22:44.054Z,8908
2017-07-09T13:23:44.108Z,8724
2017-07-09T13:24:44.157Z,8336
2017-07-09T13:25:44.196Z,8380